Port Mansfield, Texas
Current Conditions -  °F | °C
As of 3:52 PM on Tuesday 21 Oct 2014 (Local Time) from KHRL Reporting Station
Light Rain Light Rain  
Wind Chill: 74°   Ceiling: 10000
Heat Index: 74°   Visibility: 9mi
Dew Point: 72°   Wind: 9mph
Humidity: 93%   Direction: 50°NE
Pressure: 29.9"   Gusts: NA
Location:  26.56°N, 97.43°W
Report Text: KHRL 212052Z 05008KT 9SM -RA FEW035 BKN100 OVC120 23/22 A2990 RMK AO2 RAB16 SLP125 P0001 60008 T02330222 56008
Loading
Personal Weather Stations






























Interactive Weather Map
Tropical Storm Tracking
New forecast layout! Learn more

10-Day Weather Forecast

Advertisements
Track Severe Weather on mobile